sensor_id;sensor_type;location;lat;lon;timestamp;P1;durP1;ratioP1;P2;durP2;ratioP2
39880;SDS011;25554;44.954;10.068;2023-01-15T00:02:04;86.65;;;48.67;;
39880;SDS011;25554;44.954;10.068;2023-01-15T00:04:31;90.80;;;50.78;;
39880;SDS011;25554;44.954;10.068;2023-01-15T00:06:57;94.32;;;50.13;;
39880;SDS011;25554;44.954;10.068;2023-01-15T00:09:24;90.32;;;51.00;;
39880;SDS011;25554;44.954;10.068;2023-01-15T00:11:50;85.65;;;48.33;;
39880;SDS011;25554;44.954;10.068;2023-01-15T00:14:17;87.60;;;51.22;;
39880;SDS011;25554;44.954;10.068;2023-01-15T00:16:43;84.00;;;50.35;;
39880;SDS011;25554;44.954;10.068;2023-01-15T00:19:10;87.32;;;50.10;;
39880;SDS011;25554;44.954;10.068;2023-01-15T00:21:37;80.07;;;48.53;;
39880;SDS011;25554;44.954;10.068;2023-01-15T00:24:03;92.85;;;51.20;;
39880;SDS011;25554;44.954;10.068;2023-01-15T00:26:49;87.30;;;49.83;;
39880;SDS011;25554;44.954;10.068;2023-01-15T00:29:34;84.93;;;49.65;;
39880;SDS011;25554;44.954;10.068;2023-01-15T00:32:02;84.72;;;49.70;;
39880;SDS011;25554;44.954;10.068;2023-01-15T00:34:29;90.32;;;50.85;;
39880;SDS011;25554;44.954;10.068;2023-01-15T00:36:57;83.38;;;49.35;;
39880;SDS011;25554;44.954;10.068;2023-01-15T00:39:24;83.95;;;48.53;;
39880;SDS011;25554;44.954;10.068;2023-01-15T00:41:51;84.03;;;49.60;;
39880;SDS011;25554;44.954;10.068;2023-01-15T00:44:18;84.20;;;49.80;;
39880;SDS011;25554;44.954;10.068;2023-01-15T00:46:45;85.05;;;49.13;;
39880;SDS011;25554;44.954;10.068;2023-01-15T00:49:11;89.47;;;50.13;;
39880;SDS011;25554;44.954;10.068;2023-01-15T00:51:38;84.47;;;49.70;;
39880;SDS011;25554;44.954;10.068;2023-01-15T00:54:05;81.68;;;48.50;;
39880;SDS011;25554;44.954;10.068;2023-01-15T00:56:35;88.30;;;49.80;;
39880;SDS011;25554;44.954;10.068;2023-01-15T00:59:02;78.18;;;47.45;;
39880;SDS011;25554;44.954;10.068;2023-01-15T01:01:31;85.90;;;49.08;;
39880;SDS011;25554;44.954;10.068;2023-01-15T01:03:58;89.82;;;50.05;;
39880;SDS011;25554;44.954;10.068;2023-01-15T01:06:24;85.97;;;49.55;;
39880;SDS011;25554;44.954;10.068;2023-01-15T01:08:51;81.20;;;49.33;;
39880;SDS011;25554;44.954;10.068;2023-01-15T01:11:20;84.63;;;48.70;;
39880;SDS011;25554;44.954;10.068;2023-01-15T01:13:49;88.72;;;50.05;;
39880;SDS011;25554;44.954;10.068;2023-01-15T01:16:20;80.03;;;47.67;;
39880;SDS011;25554;44.954;10.068;2023-01-15T01:18:47;80.45;;;48.90;;
39880;SDS011;25554;44.954;10.068;2023-01-15T01:21:14;81.32;;;48.75;;
39880;SDS011;25554;44.954;10.068;2023-01-15T01:23:40;80.75;;;47.33;;
39880;SDS011;25554;44.954;10.068;2023-01-15T01:26:07;86.97;;;49.95;;
39880;SDS011;25554;44.954;10.068;2023-01-15T01:28:34;79.60;;;47.10;;
39880;SDS011;25554;44.954;10.068;2023-01-15T01:31:04;83.28;;;47.88;;
39880;SDS011;25554;44.954;10.068;2023-01-15T01:33:31;83.45;;;47.13;;
39880;SDS011;25554;44.954;10.068;2023-01-15T01:35:58;84.50;;;48.08;;
39880;SDS011;25554;44.954;10.068;2023-01-15T01:38:24;85.45;;;48.97;;
39880;SDS011;25554;44.954;10.068;2023-01-15T01:40:51;79.68;;;47.67;;
39880;SDS011;25554;44.954;10.068;2023-01-15T01:43:20;85.80;;;49.03;;
39880;SDS011;25554;44.954;10.068;2023-01-15T01:45:47;80.95;;;47.78;;
39880;SDS011;25554;44.954;10.068;2023-01-15T01:48:14;77.57;;;46.40;;
39880;SDS011;25554;44.954;10.068;2023-01-15T01:50:53;81.40;;;46.00;;
39880;SDS011;25554;44.954;10.068;2023-01-15T01:53:21;75.63;;;46.22;;
39880;SDS011;25554;44.954;10.068;2023-01-15T01:55:49;78.55;;;46.65;;
39880;SDS011;25554;44.954;10.068;2023-01-15T01:58:16;82.05;;;47.17;;
39880;SDS011;25554;44.954;10.068;2023-01-15T02:00:44;78.43;;;48.40;;
39880;SDS011;25554;44.954;10.068;2023-01-15T02:03:11;83.53;;;46.88;;
39880;SDS011;25554;44.954;10.068;2023-01-15T02:05:39;78.28;;;46.75;;
39880;SDS011;25554;44.954;10.068;2023-01-15T02:08:06;78.97;;;44.45;;
39880;SDS011;25554;44.954;10.068;2023-01-15T02:10:33;80.72;;;47.17;;
39880;SDS011;25554;44.954;10.068;2023-01-15T02:13:02;79.13;;;47.60;;
39880;SDS011;25554;44.954;10.068;2023-01-15T02:15:38;78.47;;;46.78;;
39880;SDS011;25554;44.954;10.068;2023-01-15T02:18:17;80.40;;;46.40;;
39880;SDS011;25554;44.954;10.068;2023-01-15T02:20:49;74.18;;;45.45;;
39880;SDS011;25554;44.954;10.068;2023-01-15T02:28:36;76.25;;;45.67;;
39880;SDS011;25554;44.954;10.068;2023-01-15T02:31:08;78.30;;;47.17;;
39880;SDS011;25554;44.954;10.068;2023-01-15T02:33:41;72.68;;;44.80;;
39880;SDS011;25554;44.954;10.068;2023-01-15T02:36:12;71.70;;;45.50;;
39880;SDS011;25554;44.954;10.068;2023-01-15T02:38:42;75.60;;;46.60;;
39880;SDS011;25554;44.954;10.068;2023-01-15T02:41:12;84.25;;;49.88;;
39880;SDS011;25554;44.954;10.068;2023-01-15T02:43:49;81.53;;;47.75;;
39880;SDS011;25554;44.954;10.068;2023-01-15T02:46:16;73.93;;;46.65;;
39880;SDS011;25554;44.954;10.068;2023-01-15T02:48:45;76.85;;;46.65;;
39880;SDS011;25554;44.954;10.068;2023-01-15T02:51:14;77.68;;;48.58;;
39880;SDS011;25554;44.954;10.068;2023-01-15T02:53:43;76.38;;;46.97;;
39880;SDS011;25554;44.954;10.068;2023-01-15T02:56:15;74.07;;;46.97;;
39880;SDS011;25554;44.954;10.068;2023-01-15T02:58:47;78.50;;;48.35;;
39880;SDS011;25554;44.954;10.068;2023-01-15T03:01:35;74.22;;;46.38;;
39880;SDS011;25554;44.954;10.068;2023-01-15T03:06:40;76.72;;;46.65;;
39880;SDS011;25554;44.954;10.068;2023-01-15T03:09:09;76.70;;;46.88;;
39880;SDS011;25554;44.954;10.068;2023-01-15T03:11:37;75.65;;;47.90;;
39880;SDS011;25554;44.954;10.068;2023-01-15T03:14:27;75.70;;;45.45;;
39880;SDS011;25554;44.954;10.068;2023-01-15T03:16:57;74.40;;;44.78;;
39880;SDS011;25554;44.954;10.068;2023-01-15T03:19:26;76.20;;;46.70;;
39880;SDS011;25554;44.954;10.068;2023-01-15T03:22:28;78.75;;;45.65;;
39880;SDS011;25554;44.954;10.068;2023-01-15T03:24:59;75.45;;;47.58;;
39880;SDS011;25554;44.954;10.068;2023-01-15T03:27:32;78.97;;;46.53;;
39880;SDS011;25554;44.954;10.068;2023-01-15T03:30:01;73.30;;;45.90;;
39880;SDS011;25554;44.954;10.068;2023-01-15T03:32:28;72.57;;;44.95;;
39880;SDS011;25554;44.954;10.068;2023-01-15T03:34:56;76.80;;;44.72;;
39880;SDS011;25554;44.954;10.068;2023-01-15T03:37:24;78.47;;;47.50;;
39880;SDS011;25554;44.954;10.068;2023-01-15T03:39:53;79.25;;;47.75;;
39880;SDS011;25554;44.954;10.068;2023-01-15T03:52:44;70.03;;;43.38;;
39880;SDS011;25554;44.954;10.068;2023-01-15T03:55:18;74.13;;;42.88;;
39880;SDS011;25554;44.954;10.068;2023-01-15T03:58:12;71.85;;;44.90;;
39880;SDS011;25554;44.954;10.068;2023-01-15T04:00:43;75.95;;;45.17;;
39880;SDS011;25554;44.954;10.068;2023-01-15T04:03:15;72.10;;;43.58;;
39880;SDS011;25554;44.954;10.068;2023-01-15T04:05:42;70.15;;;43.83;;
39880;SDS011;25554;44.954;10.068;2023-01-15T04:08:10;68.25;;;43.60;;
39880;SDS011;25554;44.954;10.068;2023-01-15T04:10:37;75.95;;;45.33;;
39880;SDS011;25554;44.954;10.068;2023-01-15T04:13:16;79.20;;;46.85;;
39880;SDS011;25554;44.954;10.068;2023-01-15T04:15:43;71.88;;;44.30;;
39880;SDS011;25554;44.954;10.068;2023-01-15T04:18:09;79.50;;;45.85;;
39880;SDS011;25554;44.954;10.068;2023-01-15T04:20:36;76.78;;;45.65;;
39880;SDS011;25554;44.954;10.068;2023-01-15T04:23:02;80.28;;;47.25;;
39880;SDS011;25554;44.954;10.068;2023-01-15T04:25:29;78.22;;;46.70;;
39880;SDS011;25554;44.954;10.068;2023-01-15T04:27:56;77.60;;;46.45;;
39880;SDS011;25554;44.954;10.068;2023-01-15T04:30:22;72.63;;;47.72;;
39880;SDS011;25554;44.954;10.068;2023-01-15T04:32:49;73.30;;;46.03;;
39880;SDS011;25554;44.954;10.068;2023-01-15T04:35:17;77.43;;;47.85;;
39880;SDS011;25554;44.954;10.068;2023-01-15T04:37:44;75.40;;;46.33;;
39880;SDS011;25554;44.954;10.068;2023-01-15T04:40:11;75.53;;;46.35;;
39880;SDS011;25554;44.954;10.068;2023-01-15T04:42:57;78.15;;;47.80;;
39880;SDS011;25554;44.954;10.068;2023-01-15T04:45:43;77.68;;;46.97;;
39880;SDS011;25554;44.954;10.068;2023-01-15T04:48:10;70.50;;;44.45;;
39880;SDS011;25554;44.954;10.068;2023-01-15T04:50:37;78.15;;;45.60;;
39880;SDS011;25554;44.954;10.068;2023-01-15T04:53:04;70.75;;;45.40;;
39880;SDS011;25554;44.954;10.068;2023-01-15T04:55:30;75.13;;;46.40;;
39880;SDS011;25554;44.954;10.068;2023-01-15T04:57:57;76.63;;;47.88;;
39880;SDS011;25554;44.954;10.068;2023-01-15T05:00:23;74.50;;;45.40;;
39880;SDS011;25554;44.954;10.068;2023-01-15T05:05:16;68.28;;;43.05;;
39880;SDS011;25554;44.954;10.068;2023-01-15T05:07:43;71.40;;;43.85;;
39880;SDS011;25554;44.954;10.068;2023-01-15T05:10:09;70.35;;;43.65;;
39880;SDS011;25554;44.954;10.068;2023-01-15T05:12:36;73.80;;;45.00;;
39880;SDS011;25554;44.954;10.068;2023-01-15T05:15:03;76.25;;;46.83;;
39880;SDS011;25554;44.954;10.068;2023-01-15T05:17:30;75.85;;;46.72;;
39880;SDS011;25554;44.954;10.068;2023-01-15T05:19:57;73.20;;;44.35;;
39880;SDS011;25554;44.954;10.068;2023-01-15T05:22:24;75.97;;;48.03;;
39880;SDS011;25554;44.954;10.068;2023-01-15T05:24:50;74.07;;;45.63;;
39880;SDS011;25554;44.954;10.068;2023-01-15T05:27:17;70.72;;;43.63;;
39880;SDS011;25554;44.954;10.068;2023-01-15T05:29:43;76.57;;;46.28;;
39880;SDS011;25554;44.954;10.068;2023-01-15T05:32:10;77.25;;;47.03;;
39880;SDS011;25554;44.954;10.068;2023-01-15T05:37:03;69.82;;;42.58;;
39880;SDS011;25554;44.954;10.068;2023-01-15T05:39:29;74.65;;;45.05;;
39880;SDS011;25554;44.954;10.068;2023-01-15T05:41:56;75.10;;;46.47;;
39880;SDS011;25554;44.954;10.068;2023-01-15T05:44:26;78.43;;;47.75;;
39880;SDS011;25554;44.954;10.068;2023-01-15T05:46:54;84.15;;;49.08;;
39880;SDS011;25554;44.954;10.068;2023-01-15T05:49:22;79.25;;;48.90;;
39880;SDS011;25554;44.954;10.068;2023-01-15T05:51:49;86.30;;;49.42;;
39880;SDS011;25554;44.954;10.068;2023-01-15T05:54:17;76.05;;;46.67;;
39880;SDS011;25554;44.954;10.068;2023-01-15T05:56:43;78.65;;;46.90;;
39880;SDS011;25554;44.954;10.068;2023-01-15T05:59:11;81.90;;;48.65;;
39880;SDS011;25554;44.954;10.068;2023-01-15T06:01:38;77.03;;;47.25;;
39880;SDS011;25554;44.954;10.068;2023-01-15T06:04:05;74.80;;;47.25;;
39880;SDS011;25554;44.954;10.068;2023-01-15T06:06:32;82.07;;;50.00;;
39880;SDS011;25554;44.954;10.068;2023-01-15T06:08:59;78.75;;;46.72;;
39880;SDS011;25554;44.954;10.068;2023-01-15T06:11:25;73.43;;;46.63;;
39880;SDS011;25554;44.954;10.068;2023-01-15T06:13:52;75.10;;;45.72;;
39880;SDS011;25554;44.954;10.068;2023-01-15T06:16:19;71.88;;;46.25;;
39880;SDS011;25554;44.954;10.068;2023-01-15T06:18:45;71.65;;;45.83;;
39880;SDS011;25554;44.954;10.068;2023-01-15T06:21:12;76.85;;;45.28;;
39880;SDS011;25554;44.954;10.068;2023-01-15T06:23:40;78.07;;;46.20;;
39880;SDS011;25554;44.954;10.068;2023-01-15T06:26:10;71.40;;;46.25;;
39880;SDS011;25554;44.954;10.068;2023-01-15T06:28:37;74.85;;;46.38;;
39880;SDS011;25554;44.954;10.068;2023-01-15T06:31:05;80.47;;;47.00;;
39880;SDS011;25554;44.954;10.068;2023-01-15T06:33:31;74.47;;;46.38;;
39880;SDS011;25554;44.954;10.068;2023-01-15T06:36:05;71.85;;;45.50;;
39880;SDS011;25554;44.954;10.068;2023-01-15T06:38:31;78.75;;;47.80;;
39880;SDS011;25554;44.954;10.068;2023-01-15T06:40:59;74.50;;;45.88;;
39880;SDS011;25554;44.954;10.068;2023-01-15T06:43:25;75.25;;;45.38;;
39880;SDS011;25554;44.954;10.068;2023-01-15T06:46:11;79.63;;;47.63;;
39880;SDS011;25554;44.954;10.068;2023-01-15T06:48:56;84.40;;;51.15;;
39880;SDS011;25554;44.954;10.068;2023-01-15T06:51:23;82.18;;;49.63;;
39880;SDS011;25554;44.954;10.068;2023-01-15T06:53:50;81.90;;;48.30;;
39880;SDS011;25554;44.954;10.068;2023-01-15T06:56:16;83.97;;;49.40;;
39880;SDS011;25554;44.954;10.068;2023-01-15T06:58:43;73.72;;;45.78;;
39880;SDS011;25554;44.954;10.068;2023-01-15T07:01:11;82.85;;;50.95;;
39880;SDS011;25554;44.954;10.068;2023-01-15T07:03:37;79.85;;;49.63;;
39880;SDS011;25554;44.954;10.068;2023-01-15T07:06:07;76.05;;;48.30;;
39880;SDS011;25554;44.954;10.068;2023-01-15T07:08:34;79.25;;;49.78;;
39880;SDS011;25554;44.954;10.068;2023-01-15T07:11:04;80.18;;;50.22;;
39880;SDS011;25554;44.954;10.068;2023-01-15T07:13:32;78.35;;;49.25;;
39880;SDS011;25554;44.954;10.068;2023-01-15T07:15:59;75.13;;;48.22;;
39880;SDS011;25554;44.954;10.068;2023-01-15T07:18:27;84.35;;;49.95;;
39880;SDS011;25554;44.954;10.068;2023-01-15T07:20:57;80.43;;;48.13;;
39880;SDS011;25554;44.954;10.068;2023-01-15T07:23:24;82.95;;;50.95;;
39880;SDS011;25554;44.954;10.068;2023-01-15T07:25:51;80.00;;;50.42;;
39880;SDS011;25554;44.954;10.068;2023-01-15T07:28:19;73.55;;;47.95;;
39880;SDS011;25554;44.954;10.068;2023-01-15T07:30:45;84.97;;;51.70;;
39880;SDS011;25554;44.954;10.068;2023-01-15T07:35:38;76.93;;;45.78;;
39880;SDS011;25554;44.954;10.068;2023-01-15T07:38:05;75.85;;;45.47;;
39880;SDS011;25554;44.954;10.068;2023-01-15T07:40:32;78.65;;;47.80;;
39880;SDS011;25554;44.954;10.068;2023-01-15T07:42:58;75.85;;;46.33;;
39880;SDS011;25554;44.954;10.068;2023-01-15T07:45:43;76.40;;;46.55;;
39880;SDS011;25554;44.954;10.068;2023-01-15T07:48:29;73.75;;;45.65;;
39880;SDS011;25554;44.954;10.068;2023-01-15T07:51:14;66.53;;;43.30;;
39880;SDS011;25554;44.954;10.068;2023-01-15T07:53:40;75.43;;;45.90;;
39880;SDS011;25554;44.954;10.068;2023-01-15T07:56:07;77.55;;;47.33;;
39880;SDS011;25554;44.954;10.068;2023-01-15T07:58:34;81.63;;;47.90;;
39880;SDS011;25554;44.954;10.068;2023-01-15T08:01:00;69.72;;;45.53;;
39880;SDS011;25554;44.954;10.068;2023-01-15T08:03:27;81.85;;;51.08;;
39880;SDS011;25554;44.954;10.068;2023-01-15T08:08:20;78.20;;;46.60;;
39880;SDS011;25554;44.954;10.068;2023-01-15T08:10:46;77.25;;;47.35;;
39880;SDS011;25554;44.954;10.068;2023-01-15T08:13:31;75.57;;;46.13;;
39880;SDS011;25554;44.954;10.068;2023-01-15T08:16:17;72.38;;;47.38;;
39880;SDS011;25554;44.954;10.068;2023-01-15T08:18:43;77.15;;;45.88;;
39880;SDS011;25554;44.954;10.068;2023-01-15T08:21:14;74.05;;;46.10;;
39880;SDS011;25554;44.954;10.068;2023-01-15T08:23:41;74.47;;;46.47;;
39880;SDS011;25554;44.954;10.068;2023-01-15T08:26:08;73.63;;;45.63;;
39880;SDS011;25554;44.954;10.068;2023-01-15T08:28:34;81.88;;;51.28;;
39880;SDS011;25554;44.954;10.068;2023-01-15T08:31:01;78.30;;;48.70;;
39880;SDS011;25554;44.954;10.068;2023-01-15T08:33:27;73.40;;;46.30;;
39880;SDS011;25554;44.954;10.068;2023-01-15T08:35:55;72.57;;;48.05;;
39880;SDS011;25554;44.954;10.068;2023-01-15T08:38:22;81.32;;;49.38;;
39880;SDS011;25554;44.954;10.068;2023-01-15T08:40:52;79.97;;;47.90;;
39880;SDS011;25554;44.954;10.068;2023-01-15T08:43:28;80.55;;;48.15;;
39880;SDS011;25554;44.954;10.068;2023-01-15T08:45:56;72.38;;;45.95;;
39880;SDS011;25554;44.954;10.068;2023-01-15T08:48:22;79.10;;;47.00;;
39880;SDS011;25554;44.954;10.068;2023-01-15T08:50:49;73.78;;;46.10;;
39880;SDS011;25554;44.954;10.068;2023-01-15T08:53:16;75.07;;;48.75;;
39880;SDS011;25554;44.954;10.068;2023-01-15T08:55:44;78.53;;;46.78;;
39880;SDS011;25554;44.954;10.068;2023-01-15T08:58:11;76.97;;;46.40;;
39880;SDS011;25554;44.954;10.068;2023-01-15T09:03:03;75.85;;;45.20;;
39880;SDS011;25554;44.954;10.068;2023-01-15T09:05:30;69.05;;;45.33;;
39880;SDS011;25554;44.954;10.068;2023-01-15T09:07:56;76.30;;;46.03;;
39880;SDS011;25554;44.954;10.068;2023-01-15T09:10:23;73.03;;;46.78;;
39880;SDS011;25554;44.954;10.068;2023-01-15T09:12:50;75.15;;;46.13;;
39880;SDS011;25554;44.954;10.068;2023-01-15T09:17:43;82.40;;;47.90;;
39880;SDS011;25554;44.954;10.068;2023-01-15T09:20:10;70.50;;;44.58;;
39880;SDS011;25554;44.954;10.068;2023-01-15T09:22:37;74.70;;;47.60;;
39880;SDS011;25554;44.954;10.068;2023-01-15T09:25:04;72.78;;;46.88;;
39880;SDS011;25554;44.954;10.068;2023-01-15T09:27:30;72.38;;;46.25;;
39880;SDS011;25554;44.954;10.068;2023-01-15T09:29:59;69.93;;;46.35;;
39880;SDS011;25554;44.954;10.068;2023-01-15T09:32:25;71.50;;;44.78;;
39880;SDS011;25554;44.954;10.068;2023-01-15T09:34:52;69.13;;;44.60;;
39880;SDS011;25554;44.954;10.068;2023-01-15T09:37:18;68.53;;;45.83;;
39880;SDS011;25554;44.954;10.068;2023-01-15T09:39:45;65.88;;;43.58;;
39880;SDS011;25554;44.954;10.068;2023-01-15T09:42:22;68.95;;;44.58;;
39880;SDS011;25554;44.954;10.068;2023-01-15T09:45:09;65.78;;;43.60;;
39880;SDS011;25554;44.954;10.068;2023-01-15T09:50:17;72.85;;;46.15;;
39880;SDS011;25554;44.954;10.068;2023-01-15T09:57:53;64.07;;;41.88;;
39880;SDS011;25554;44.954;10.068;2023-01-15T10:00:21;71.43;;;44.58;;
39880;SDS011;25554;44.954;10.068;2023-01-15T10:02:56;73.63;;;45.85;;
39880;SDS011;25554;44.954;10.068;2023-01-15T10:05:27;77.03;;;47.10;;
39880;SDS011;25554;44.954;10.068;2023-01-15T10:08:05;74.20;;;47.22;;
39880;SDS011;25554;44.954;10.068;2023-01-15T10:10:39;73.28;;;46.25;;
39880;SDS011;25554;44.954;10.068;2023-01-15T10:13:11;68.30;;;44.72;;
39880;SDS011;25554;44.954;10.068;2023-01-15T10:15:43;68.63;;;45.92;;
39880;SDS011;25554;44.954;10.068;2023-01-15T10:18:14;74.15;;;47.53;;
39880;SDS011;25554;44.954;10.068;2023-01-15T10:26:34;76.00;;;47.88;;
39880;SDS011;25554;44.954;10.068;2023-01-15T10:37:05;75.93;;;47.28;;
39880;SDS011;25554;44.954;10.068;2023-01-15T10:42:15;74.25;;;48.45;;
39880;SDS011;25554;44.954;10.068;2023-01-15T10:44:50;79.20;;;48.80;;
39880;SDS011;25554;44.954;10.068;2023-01-15T10:47:22;75.00;;;47.38;;
39880;SDS011;25554;44.954;10.068;2023-01-15T10:49:51;76.60;;;48.65;;
39880;SDS011;25554;44.954;10.068;2023-01-15T10:54:48;81.88;;;50.10;;
39880;SDS011;25554;44.954;10.068;2023-01-15T10:57:17;75.05;;;50.13;;
39880;SDS011;25554;44.954;10.068;2023-01-15T11:02:21;79.88;;;49.55;;
39880;SDS011;25554;44.954;10.068;2023-01-15T11:04:48;80.05;;;49.03;;
39880;SDS011;25554;44.954;10.068;2023-01-15T11:07:15;76.95;;;48.88;;
39880;SDS011;25554;44.954;10.068;2023-01-15T11:09:42;74.57;;;47.25;;
39880;SDS011;25554;44.954;10.068;2023-01-15T11:12:26;77.88;;;49.10;;
39880;SDS011;25554;44.954;10.068;2023-01-15T11:15:13;77.68;;;47.92;;
39880;SDS011;25554;44.954;10.068;2023-01-15T11:18:10;79.63;;;49.17;;
39880;SDS011;25554;44.954;10.068;2023-01-15T11:20:56;77.90;;;48.03;;
39880;SDS011;25554;44.954;10.068;2023-01-15T11:23:23;81.38;;;50.20;;
39880;SDS011;25554;44.954;10.068;2023-01-15T11:25:54;80.57;;;49.20;;
39880;SDS011;25554;44.954;10.068;2023-01-15T11:30:56;79.25;;;49.03;;
39880;SDS011;25554;44.954;10.068;2023-01-15T11:33:25;78.60;;;49.60;;
39880;SDS011;25554;44.954;10.068;2023-01-15T11:35:57;74.68;;;48.88;;
39880;SDS011;25554;44.954;10.068;2023-01-15T11:38:25;79.65;;;48.28;;
39880;SDS011;25554;44.954;10.068;2023-01-15T11:40:59;79.43;;;49.85;;
39880;SDS011;25554;44.954;10.068;2023-01-15T11:43:27;77.75;;;48.35;;
39880;SDS011;25554;44.954;10.068;2023-01-15T11:46:23;76.78;;;46.83;;
39880;SDS011;25554;44.954;10.068;2023-01-15T11:49:09;80.15;;;49.33;;
39880;SDS011;25554;44.954;10.068;2023-01-15T11:51:57;78.13;;;48.03;;
39880;SDS011;25554;44.954;10.068;2023-01-15T11:54:26;77.32;;;49.33;;
39880;SDS011;25554;44.954;10.068;2023-01-15T11:56:52;76.15;;;48.25;;
39880;SDS011;25554;44.954;10.068;2023-01-15T11:59:21;79.03;;;50.00;;
39880;SDS011;25554;44.954;10.068;2023-01-15T12:01:54;80.47;;;48.58;;
39880;SDS011;25554;44.954;10.068;2023-01-15T12:07:00;81.30;;;49.83;;
39880;SDS011;25554;44.954;10.068;2023-01-15T12:16:47;72.90;;;45.67;;
39880;SDS011;25554;44.954;10.068;2023-01-15T12:19:28;81.15;;;48.30;;
39880;SDS011;25554;44.954;10.068;2023-01-15T12:24:52;79.72;;;48.25;;
39880;SDS011;25554;44.954;10.068;2023-01-15T12:29:59;75.07;;;46.50;;
39880;SDS011;25554;44.954;10.068;2023-01-15T12:32:39;84.38;;;49.25;;
39880;SDS011;25554;44.954;10.068;2023-01-15T12:37:46;81.40;;;47.78;;
39880;SDS011;25554;44.954;10.068;2023-01-15T12:40:17;81.30;;;50.08;;
39880;SDS011;25554;44.954;10.068;2023-01-15T12:42:47;79.47;;;50.38;;
39880;SDS011;25554;44.954;10.068;2023-01-15T12:45:35;82.05;;;50.83;;
39880;SDS011;25554;44.954;10.068;2023-01-15T12:48:04;77.47;;;49.85;;
39880;SDS011;25554;44.954;10.068;2023-01-15T12:50:41;80.45;;;50.30;;
39880;SDS011;25554;44.954;10.068;2023-01-15T12:55:40;78.78;;;49.60;;
39880;SDS011;25554;44.954;10.068;2023-01-15T12:58:12;78.85;;;49.65;;
39880;SDS011;25554;44.954;10.068;2023-01-15T13:00:41;76.63;;;47.72;;
39880;SDS011;25554;44.954;10.068;2023-01-15T13:03:14;84.75;;;50.42;;
39880;SDS011;25554;44.954;10.068;2023-01-15T13:05:55;77.90;;;49.45;;
39880;SDS011;25554;44.954;10.068;2023-01-15T13:08:27;79.70;;;48.97;;
39880;SDS011;25554;44.954;10.068;2023-01-15T13:10:54;76.32;;;48.88;;
39880;SDS011;25554;44.954;10.068;2023-01-15T13:13:23;76.15;;;48.40;;
39880;SDS011;25554;44.954;10.068;2023-01-15T13:16:04;80.20;;;50.38;;
39880;SDS011;25554;44.954;10.068;2023-01-15T13:21:05;80.68;;;49.80;;
39880;SDS011;25554;44.954;10.068;2023-01-15T13:23:39;76.13;;;49.30;;
39880;SDS011;25554;44.954;10.068;2023-01-15T13:26:22;81.18;;;50.47;;
39880;SDS011;25554;44.954;10.068;2023-01-15T13:31:42;84.07;;;50.50;;
39880;SDS011;25554;44.954;10.068;2023-01-15T13:34:30;86.10;;;51.92;;
39880;SDS011;25554;44.954;10.068;2023-01-15T13:37:43;83.28;;;49.47;;
39880;SDS011;25554;44.954;10.068;2023-01-15T13:39:50;86.65;;;52.08;;
39880;SDS011;25554;44.954;10.068;2023-01-15T13:42:19;86.82;;;53.55;;
39880;SDS011;25554;44.954;10.068;2023-01-15T13:45:04;89.35;;;54.63;;
39880;SDS011;25554;44.954;10.068;2023-01-15T13:47:33;88.72;;;53.10;;
39880;SDS011;25554;44.954;10.068;2023-01-15T13:50:05;86.50;;;53.72;;
39880;SDS011;25554;44.954;10.068;2023-01-15T13:52:34;89.15;;;54.83;;
39880;SDS011;25554;44.954;10.068;2023-01-15T13:57:35;88.40;;;53.97;;
39880;SDS011;25554;44.954;10.068;2023-01-15T14:00:03;92.95;;;54.88;;
39880;SDS011;25554;44.954;10.068;2023-01-15T14:02:37;89.57;;;54.00;;
39880;SDS011;25554;44.954;10.068;2023-01-15T14:07:51;90.65;;;53.58;;
39880;SDS011;25554;44.954;10.068;2023-01-15T14:22:49;92.70;;;56.58;;
39880;SDS011;25554;44.954;10.068;2023-01-15T14:33:30;91.13;;;55.25;;
39880;SDS011;25554;44.954;10.068;2023-01-15T14:36:07;90.82;;;54.90;;
39880;SDS011;25554;44.954;10.068;2023-01-15T14:38:34;86.05;;;53.97;;
39880;SDS011;25554;44.954;10.068;2023-01-15T14:41:02;93.97;;;56.58;;
39880;SDS011;25554;44.954;10.068;2023-01-15T14:43:34;87.75;;;54.85;;
39880;SDS011;25554;44.954;10.068;2023-01-15T14:46:48;93.72;;;56.58;;
39880;SDS011;25554;44.954;10.068;2023-01-15T14:48:55;90.28;;;56.55;;
39880;SDS011;25554;44.954;10.068;2023-01-15T14:53:52;98.00;;;59.03;;
39880;SDS011;25554;44.954;10.068;2023-01-15T14:56:21;95.00;;;58.53;;
39880;SDS011;25554;44.954;10.068;2023-01-15T14:58:53;102.30;;;59.90;;
39880;SDS011;25554;44.954;10.068;2023-01-15T15:03:49;96.57;;;58.30;;
39880;SDS011;25554;44.954;10.068;2023-01-15T15:06:17;99.65;;;59.03;;
39880;SDS011;25554;44.954;10.068;2023-01-15T15:08:45;90.75;;;57.63;;
39880;SDS011;25554;44.954;10.068;2023-01-15T15:11:14;97.05;;;59.97;;
39880;SDS011;25554;44.954;10.068;2023-01-15T15:14:00;97.40;;;58.97;;
39880;SDS011;25554;44.954;10.068;2023-01-15T15:16:32;97.80;;;58.05;;
39880;SDS011;25554;44.954;10.068;2023-01-15T15:21:28;101.03;;;61.42;;
39880;SDS011;25554;44.954;10.068;2023-01-15T15:24:02;97.05;;;58.38;;
39880;SDS011;25554;44.954;10.068;2023-01-15T15:26:34;103.13;;;60.65;;
39880;SDS011;25554;44.954;10.068;2023-01-15T15:29:04;96.80;;;57.95;;
39880;SDS011;25554;44.954;10.068;2023-01-15T15:31:33;96.72;;;60.35;;
39880;SDS011;25554;44.954;10.068;2023-01-15T15:34:00;94.63;;;59.58;;
39880;SDS011;25554;44.954;10.068;2023-01-15T15:36:28;89.88;;;56.70;;
39880;SDS011;25554;44.954;10.068;2023-01-15T15:38:59;100.35;;;60.70;;
39880;SDS011;25554;44.954;10.068;2023-01-15T15:41:28;104.75;;;61.67;;
39880;SDS011;25554;44.954;10.068;2023-01-15T15:44:15;100.57;;;60.33;;
39880;SDS011;25554;44.954;10.068;2023-01-15T15:47:16;97.00;;;58.08;;
39880;SDS011;25554;44.954;10.068;2023-01-15T15:50:01;93.80;;;57.03;;
39880;SDS011;25554;44.954;10.068;2023-01-15T15:52:28;93.28;;;58.50;;
39880;SDS011;25554;44.954;10.068;2023-01-15T15:54:58;98.78;;;57.47;;
39880;SDS011;25554;44.954;10.068;2023-01-15T15:57:25;97.47;;;59.08;;
39880;SDS011;25554;44.954;10.068;2023-01-15T15:59:53;96.43;;;58.22;;
39880;SDS011;25554;44.954;10.068;2023-01-15T16:02:20;98.82;;;59.60;;
39880;SDS011;25554;44.954;10.068;2023-01-15T16:04:50;89.28;;;56.42;;
39880;SDS011;25554;44.954;10.068;2023-01-15T16:09:48;100.38;;;59.95;;
39880;SDS011;25554;44.954;10.068;2023-01-15T16:12:16;99.25;;;60.85;;
39880;SDS011;25554;44.954;10.068;2023-01-15T16:14:43;102.22;;;61.20;;
39880;SDS011;25554;44.954;10.068;2023-01-15T16:17:11;96.13;;;60.30;;
39880;SDS011;25554;44.954;10.068;2023-01-15T16:19:38;92.10;;;57.42;;
39880;SDS011;25554;44.954;10.068;2023-01-15T16:22:09;97.63;;;60.30;;
39880;SDS011;25554;44.954;10.068;2023-01-15T16:24:38;102.13;;;62.45;;
39880;SDS011;25554;44.954;10.068;2023-01-15T16:27:06;97.50;;;62.03;;
39880;SDS011;25554;44.954;10.068;2023-01-15T16:29:38;103.72;;;61.67;;
39880;SDS011;25554;44.954;10.068;2023-01-15T16:32:09;107.10;;;62.75;;
39880;SDS011;25554;44.954;10.068;2023-01-15T16:34:36;113.75;;;64.25;;